createdAt,value
2022-11-18T00:01:20.239Z,7.45
2022-11-18T00:03:50.650Z,7.43
2022-11-18T00:06:20.310Z,7.45
2022-11-18T00:08:49.065Z,7.45
2022-11-18T00:11:38.695Z,7.47
2022-11-18T00:14:22.918Z,7.52
2022-11-18T00:16:53.621Z,7.57
2022-11-18T00:19:25.090Z,7.59
2022-11-18T00:21:53.156Z,7.57
2022-11-18T00:24:22.419Z,7.59
2022-11-18T00:26:50.601Z,7.58
2022-11-18T00:29:19.704Z,7.59
2022-11-18T00:31:48.472Z,7.64
2022-11-18T00:34:19.060Z,7.65
2022-11-18T00:36:49.444Z,7.67
2022-11-18T00:39:19.850Z,7.69
2022-11-18T00:42:06.891Z,7.72
2022-11-18T00:44:35.399Z,7.73
2022-11-18T00:47:03.952Z,7.73
2022-11-18T00:49:32.193Z,7.74
2022-11-18T00:52:02.409Z,7.76
2022-11-18T00:54:30.822Z,7.76
2022-11-18T00:56:59.119Z,7.80
2022-11-18T00:59:27.347Z,7.79
2022-11-18T01:01:55.533Z,7.75
2022-11-18T01:04:23.742Z,7.76
2022-11-18T01:06:52.051Z,7.75
2022-11-18T01:09:21.703Z,7.77
2022-11-18T01:12:07.165Z,7.77
2022-11-18T01:14:35.352Z,7.75
2022-11-18T01:17:03.662Z,7.77
2022-11-18T01:19:31.789Z,7.77
2022-11-18T01:22:03.405Z,7.80
2022-11-18T01:24:34.893Z,7.77
2022-11-18T01:27:03.667Z,7.76
2022-11-18T01:29:31.961Z,7.75
2022-11-18T01:34:48.605Z,7.70
2022-11-18T01:37:16.739Z,7.75
2022-11-18T01:39:46.340Z,7.76
2022-11-18T01:42:16.722Z,7.80
2022-11-18T01:45:05.328Z,7.78
2022-11-18T01:47:37.041Z,7.78
2022-11-18T01:50:08.075Z,7.84
2022-11-18T01:52:37.103Z,7.83
2022-11-18T01:55:12.817Z,7.86
2022-11-18T01:57:42.499Z,7.86
2022-11-18T02:00:12.304Z,7.84
2022-11-18T02:02:40.484Z,7.85
2022-11-18T02:05:11.753Z,7.78
2022-11-18T02:07:43.307Z,7.81
2022-11-18T02:10:20.631Z,7.77
2022-11-18T02:12:49.539Z,7.80
2022-11-18T02:15:18.685Z,7.85
2022-11-18T02:17:54.939Z,7.88
2022-11-18T02:20:32.311Z,7.86
2022-11-18T02:23:28.707Z,7.93
2022-11-18T02:26:19.594Z,7.99
2022-11-18T02:29:05.112Z,7.99
2022-11-18T02:31:37.845Z,7.98
2022-11-18T02:34:10.614Z,7.96
2022-11-18T02:36:43.099Z,7.98
2022-11-18T02:39:18.774Z,8.03
2022-11-18T02:41:48.942Z,8.06
2022-11-18T02:44:21.118Z,8.06
2022-11-18T02:46:54.840Z,8.02
2022-11-18T02:49:29.526Z,8.04
2022-11-18T02:51:59.360Z,8.09
2022-11-18T02:54:28.999Z,8.07
2022-11-18T02:56:57.967Z,8.08
2022-11-18T02:59:29.592Z,8.08
2022-11-18T03:01:57.905Z,8.06
2022-11-18T03:04:27.477Z,8.09
2022-11-18T03:07:02.206Z,8.08
2022-11-18T03:09:35.401Z,8.08
2022-11-18T03:12:16.267Z,8.10
2022-11-18T03:14:53.602Z,8.11
2022-11-18T03:17:29.615Z,8.12
2022-11-18T03:20:11.916Z,8.14
2022-11-18T03:22:45.400Z,8.16
2022-11-18T03:25:19.762Z,8.14
2022-11-18T03:27:54.880Z,8.15
2022-11-18T03:30:25.704Z,8.13
2022-11-18T03:32:59.444Z,8.11
2022-11-18T03:35:31.964Z,8.13
2022-11-18T03:38:06.891Z,8.11
2022-11-18T03:40:39.187Z,8.14
2022-11-18T03:43:12.257Z,8.17
2022-11-18T03:45:45.616Z,8.19
2022-11-18T03:48:17.418Z,8.18
2022-11-18T03:50:49.349Z,8.16
2022-11-18T03:53:19.604Z,8.18
2022-11-18T03:55:52.384Z,8.17
2022-11-18T03:58:26.852Z,8.19
2022-11-18T04:01:03.180Z,8.18
2022-11-18T04:03:32.008Z,8.15
2022-11-18T04:06:09.673Z,8.10
2022-11-18T04:08:41.665Z,8.05
2022-11-18T04:11:37.297Z,8.03
2022-11-18T04:14:08.607Z,8.03
2022-11-18T04:16:42.900Z,8.04
2022-11-18T04:19:11.304Z,8.02
2022-11-18T04:21:39.486Z,8.03
2022-11-18T04:24:08.213Z,8.04
2022-11-18T04:26:36.445Z,8.08
2022-11-18T04:29:04.844Z,8.08
2022-11-18T04:31:33.087Z,8.06
2022-11-18T04:34:02.666Z,8.05
2022-11-18T04:36:32.236Z,8.03
2022-11-18T04:39:00.432Z,8.02
2022-11-18T04:41:42.364Z,7.99
2022-11-18T04:44:13.505Z,7.99
2022-11-18T04:46:42.927Z,7.97
2022-11-18T04:49:14.812Z,7.94
2022-11-18T04:51:44.327Z,7.91
2022-11-18T04:54:13.376Z,7.91
2022-11-18T04:56:47.446Z,7.90
2022-11-18T04:59:19.665Z,7.91
2022-11-18T05:01:48.396Z,7.88
2022-11-18T05:04:19.817Z,7.86
2022-11-18T05:06:48.417Z,7.83
2022-11-18T05:09:17.559Z,7.84
2022-11-18T05:12:03.645Z,7.86
2022-11-18T05:14:32.533Z,7.85
2022-11-18T05:17:02.387Z,7.88
2022-11-18T05:19:32.126Z,7.85
2022-11-18T05:22:01.353Z,7.88
2022-11-18T05:24:29.507Z,7.87
2022-11-18T05:26:57.780Z,7.88
2022-11-18T05:29:25.832Z,7.88
2022-11-18T05:31:54.148Z,7.88
2022-11-18T05:34:22.579Z,7.91
2022-11-18T05:36:52.299Z,7.94
2022-11-18T05:39:24.729Z,7.94
2022-11-18T05:42:09.998Z,7.93
2022-11-18T05:44:38.317Z,7.88
2022-11-18T05:47:06.693Z,7.85
2022-11-18T05:49:34.917Z,7.81
2022-11-18T05:52:04.974Z,7.78
2022-11-18T05:54:33.183Z,7.76
2022-11-18T05:57:01.283Z,7.74
2022-11-18T05:59:29.388Z,7.69
2022-11-18T06:02:00.967Z,7.68
2022-11-18T06:04:33.330Z,7.66
2022-11-18T06:07:06.211Z,7.66
2022-11-18T06:09:39.236Z,7.64
2022-11-18T06:12:08.724Z,7.59
2022-11-18T06:14:42.351Z,7.54
2022-11-18T06:17:16.467Z,7.53
2022-11-18T06:19:44.857Z,7.49
2022-11-18T06:22:13.163Z,7.54
2022-11-18T06:24:44.504Z,7.51
2022-11-18T06:27:15.087Z,7.53
2022-11-18T06:29:43.306Z,7.55
2022-11-18T06:32:11.439Z,7.55
2022-11-18T06:34:41.759Z,7.53
2022-11-18T06:37:17.416Z,7.53
2022-11-18T06:39:46.911Z,7.48
2022-11-18T06:42:35.608Z,7.45
2022-11-18T06:45:03.455Z,7.41
2022-11-18T06:47:31.684Z,7.37
2022-11-18T06:49:59.907Z,7.34
2022-11-18T06:52:28.871Z,7.30
2022-11-18T06:54:58.459Z,7.27
2022-11-18T06:57:26.557Z,7.24
2022-11-18T06:59:59.141Z,7.22
2022-11-18T07:02:30.088Z,7.16
2022-11-18T07:04:58.683Z,7.13
2022-11-18T07:07:26.864Z,7.12
2022-11-18T07:09:55.147Z,7.09
2022-11-18T07:12:24.586Z,7.10
2022-11-18T07:14:52.881Z,7.08
2022-11-18T07:17:21.049Z,7.07
2022-11-18T07:19:49.108Z,7.06
2022-11-18T07:22:17.286Z,7.05
2022-11-18T07:24:45.415Z,7.03
2022-11-18T07:27:13.606Z,7.03
2022-11-18T07:29:43.164Z,6.99
2022-11-18T07:32:11.257Z,6.97
2022-11-18T07:34:39.458Z,7.00
2022-11-18T07:37:07.641Z,6.98
2022-11-18T07:39:35.887Z,6.96
2022-11-18T07:42:04.185Z,6.93
2022-11-18T07:44:32.506Z,6.94
2022-11-18T07:47:01.979Z,6.96
2022-11-18T07:49:30.111Z,6.91
2022-11-18T07:51:58.269Z,6.90
2022-11-18T07:54:26.355Z,6.89
2022-11-18T07:56:54.506Z,6.87
2022-11-18T07:59:22.550Z,6.86
2022-11-18T08:01:50.919Z,6.84
2022-11-18T08:04:20.582Z,6.82
2022-11-18T08:06:48.820Z,6.80
2022-11-18T08:09:17.235Z,6.81
2022-11-18T08:11:45.526Z,6.81
2022-11-18T08:14:13.762Z,6.82
2022-11-18T08:16:41.944Z,6.83
2022-11-18T08:19:10.008Z,6.80
2022-11-18T08:21:39.481Z,6.79
2022-11-18T08:24:08.002Z,6.80
2022-11-18T08:26:36.149Z,6.80
2022-11-18T08:29:04.387Z,6.79
2022-11-18T08:31:32.578Z,6.80
2022-11-18T08:34:03.043Z,6.80
2022-11-18T08:36:33.461Z,6.78
2022-11-18T08:39:05.745Z,6.76
2022-11-18T08:41:35.926Z,6.74
2022-11-18T08:44:05.441Z,6.76
2022-11-18T08:46:33.604Z,6.74
2022-11-18T08:49:02.193Z,6.75
2022-11-18T08:51:30.784Z,6.78
2022-11-18T08:53:59.017Z,6.77
2022-11-18T08:56:28.828Z,6.81
2022-11-18T08:58:57.520Z,6.83
2022-11-18T09:01:25.799Z,6.86
2022-11-18T09:03:54.093Z,6.93
2022-11-18T09:06:24.962Z,6.99
2022-11-18T09:08:53.954Z,6.98
2022-11-18T09:11:24.112Z,7.02
2022-11-18T09:16:44.453Z,7.08
2022-11-18T09:19:40.140Z,7.11
2022-11-18T09:22:00.903Z,7.17
2022-11-18T09:24:29.113Z,7.19
2022-11-18T09:26:57.380Z,7.22
2022-11-18T09:29:27.074Z,7.27
2022-11-18T09:31:56.041Z,7.34
2022-11-18T09:34:24.739Z,7.36
2022-11-18T09:36:56.020Z,7.41
2022-11-18T09:39:24.962Z,7.42
2022-11-18T09:42:04.173Z,7.48
2022-11-18T09:44:51.288Z,7.49
2022-11-18T09:47:27.047Z,7.53
2022-11-18T09:49:57.777Z,7.55
2022-11-18T09:52:35.584Z,7.55
2022-11-18T09:55:06.219Z,7.59
2022-11-18T09:57:39.945Z,7.63
2022-11-18T10:00:15.716Z,7.67
2022-11-18T10:02:52.151Z,7.67
2022-11-18T10:05:22.945Z,7.66
2022-11-18T10:08:04.362Z,7.69
2022-11-18T10:10:42.856Z,7.72
2022-11-18T10:13:20.202Z,7.77
2022-11-18T10:16:00.495Z,7.82
2022-11-18T10:21:34.668Z,7.89
2022-11-18T10:24:08.597Z,7.94
2022-11-18T10:26:38.579Z,8.02
2022-11-18T10:29:10.127Z,8.05
2022-11-18T10:31:40.323Z,8.14
2022-11-18T10:34:15.299Z,8.24
2022-11-18T10:36:43.567Z,8.33
2022-11-18T10:39:15.211Z,8.35
2022-11-18T10:41:45.691Z,8.40
2022-11-18T10:44:39.163Z,8.52
2022-11-18T10:47:24.456Z,8.60
2022-11-18T10:49:53.103Z,8.69
2022-11-18T10:52:21.946Z,8.71
2022-11-18T10:55:19.634Z,8.80
2022-11-18T10:57:49.054Z,8.90
2022-11-18T11:00:44.964Z,9.02
2022-11-18T11:03:39.224Z,9.10
2022-11-18T11:06:37.549Z,9.14
2022-11-18T11:09:09.465Z,9.20
2022-11-18T11:11:40.672Z,9.23
2022-11-18T11:14:18.575Z,9.23
2022-11-18T11:16:59.300Z,9.27
2022-11-18T11:19:38.263Z,9.39
2022-11-18T11:22:11.301Z,9.43
2022-11-18T11:24:39.744Z,9.53
2022-11-18T11:30:18.011Z,9.61
2022-11-18T11:33:26.258Z,9.62
2022-11-18T11:36:17.965Z,9.76
2022-11-18T11:38:58.654Z,9.69
2022-11-18T11:41:32.755Z,9.73
2022-11-18T11:44:30.320Z,9.78
2022-11-18T11:47:29.357Z,9.78
2022-11-18T11:50:03.588Z,9.78
2022-11-18T11:52:46.725Z,9.78
2022-11-18T11:55:24.527Z,9.81
2022-11-18T11:58:05.658Z,9.86
2022-11-18T12:00:40.920Z,9.87
2022-11-18T12:03:28.789Z,9.87
2022-11-18T12:05:57.318Z,9.92
2022-11-18T12:08:31.318Z,9.94
2022-11-18T12:11:04.931Z,9.95
2022-11-18T12:13:42.122Z,9.96
2022-11-18T12:16:22.197Z,9.96
2022-11-18T12:18:55.701Z,10.00
2022-11-18T12:21:58.351Z,9.97
2022-11-18T12:24:34.303Z,10.05
2022-11-18T12:27:05.106Z,10.04
2022-11-18T12:29:39.805Z,10.06
2022-11-18T12:32:27.637Z,10.09
2022-11-18T12:35:00.962Z,10.09
2022-11-18T12:37:59.701Z,10.10
2022-11-18T12:40:42.471Z,10.13
2022-11-18T12:44:04.459Z,10.11
2022-11-18T12:46:52.776Z,10.09
2022-11-18T12:50:13.454Z,10.09
2022-11-18T12:52:55.600Z,10.10
2022-11-18T12:55:39.313Z,10.11
2022-11-18T12:58:23.998Z,10.11
2022-11-18T13:00:55.546Z,10.13
2022-11-18T13:03:25.581Z,10.11
2022-11-18T13:06:05.950Z,10.13
2022-11-18T13:08:34.224Z,10.14
2022-11-18T13:11:29.420Z,10.14
2022-11-18T13:14:11.507Z,10.11
2022-11-18T13:16:57.721Z,10.13
2022-11-18T13:19:26.479Z,10.14
2022-11-18T13:22:16.867Z,10.15
2022-11-18T13:24:46.964Z,10.15
2022-11-18T13:27:43.732Z,10.14
2022-11-18T13:30:14.486Z,10.13
2022-11-18T13:32:46.174Z,10.12
2022-11-18T13:35:16.710Z,10.11
2022-11-18T13:37:53.619Z,10.09
2022-11-18T13:40:24.299Z,10.09
2022-11-18T13:42:53.878Z,10.06
2022-11-18T13:45:24.958Z,9.99
2022-11-18T13:47:55.586Z,9.98
2022-11-18T13:50:29.966Z,9.96
2022-11-18T13:53:05.283Z,9.93
2022-11-18T13:55:37.014Z,9.89
2022-11-18T13:58:13.368Z,9.88
2022-11-18T14:00:41.497Z,9.87
2022-11-18T14:03:25.083Z,9.81
2022-11-18T14:05:54.513Z,9.78
2022-11-18T14:08:28.219Z,9.75
2022-11-18T14:10:57.830Z,9.70
2022-11-18T14:13:30.623Z,9.66
2022-11-18T14:16:00.648Z,9.63
2022-11-18T14:18:33.335Z,9.59
2022-11-18T14:21:02.881Z,9.58
2022-11-18T14:23:33.340Z,9.53
2022-11-18T14:26:03.932Z,9.53
2022-11-18T14:28:36.880Z,9.48
2022-11-18T14:31:08.619Z,9.46
2022-11-18T14:33:38.110Z,9.45
2022-11-18T14:36:13.141Z,9.42
2022-11-18T14:39:11.205Z,9.42
2022-11-18T14:41:55.031Z,9.36
2022-11-18T14:44:26.340Z,9.33
2022-11-18T14:46:59.187Z,9.31
2022-11-18T14:49:30.107Z,9.29
2022-11-18T14:51:59.160Z,9.28
2022-11-18T14:54:28.465Z,9.26
2022-11-18T14:57:01.491Z,9.26
2022-11-18T14:59:31.131Z,9.22
2022-11-18T15:01:59.801Z,9.20
2022-11-18T15:04:28.093Z,9.19
2022-11-18T15:06:56.435Z,9.16
2022-11-18T15:09:24.867Z,9.17
2022-11-18T15:11:52.928Z,9.15
2022-11-18T15:14:21.458Z,9.14
2022-11-18T15:16:51.201Z,9.13
2022-11-18T15:19:19.394Z,9.11
2022-11-18T15:21:47.588Z,9.03
2022-11-18T15:24:16.284Z,9.08
2022-11-18T15:26:46.541Z,9.02
2022-11-18T15:29:18.886Z,8.98
2022-11-18T15:31:47.406Z,8.96
2022-11-18T15:34:18.379Z,8.92
2022-11-18T15:36:47.157Z,8.91
2022-11-18T15:39:15.433Z,8.89
2022-11-18T15:41:44.551Z,8.87
2022-11-18T15:44:13.094Z,8.89
2022-11-18T15:46:41.607Z,8.86
2022-11-18T15:49:14.544Z,8.85
2022-11-18T15:51:44.363Z,8.79
2022-11-18T15:54:12.435Z,8.77
2022-11-18T15:56:41.713Z,8.76
2022-11-18T15:59:12.461Z,8.71
2022-11-18T16:01:42.512Z,8.69
2022-11-18T16:04:12.499Z,8.67
2022-11-18T16:06:43.646Z,8.63
2022-11-18T16:09:14.366Z,8.63
2022-11-18T16:12:00.697Z,8.65
2022-11-18T16:14:29.172Z,8.64
2022-11-18T16:16:57.915Z,8.64
2022-11-18T16:19:31.482Z,8.63
2022-11-18T16:21:59.675Z,8.61
2022-11-18T16:24:30.638Z,8.60
2022-11-18T16:26:58.943Z,8.56
2022-11-18T16:29:27.283Z,8.51
2022-11-18T16:31:54.937Z,8.47
2022-11-18T16:34:25.434Z,8.42
2022-11-18T16:36:55.429Z,8.38
2022-11-18T16:39:25.745Z,8.33
2022-11-18T16:42:15.284Z,8.30
2022-11-18T16:44:43.761Z,8.27
2022-11-18T16:47:15.227Z,8.22
2022-11-18T16:49:44.345Z,8.20
2022-11-18T16:52:12.832Z,8.24
2022-11-18T16:54:45.305Z,8.22
2022-11-18T16:57:16.087Z,8.21
2022-11-18T16:59:44.338Z,8.19
2022-11-18T17:02:14.464Z,8.18
2022-11-18T17:04:42.787Z,8.18
2022-11-18T17:07:11.117Z,8.17
2022-11-18T17:09:39.474Z,8.14
2022-11-18T17:12:08.605Z,8.13
2022-11-18T17:14:38.723Z,8.12
2022-11-18T17:17:06.968Z,8.09
2022-11-18T17:19:35.124Z,8.09
2022-11-18T17:22:03.235Z,8.07
2022-11-18T17:24:31.472Z,8.05
2022-11-18T17:26:59.790Z,8.03
2022-11-18T17:29:28.001Z,8.01
2022-11-18T17:31:57.519Z,7.99
2022-11-18T17:34:25.748Z,7.97
2022-11-18T17:36:53.905Z,7.96
2022-11-18T17:39:22.119Z,7.94
2022-11-18T17:42:07.571Z,7.94
2022-11-18T17:44:35.760Z,7.91
2022-11-18T17:47:05.683Z,7.90
2022-11-18T17:49:34.254Z,7.92
2022-11-18T17:52:02.743Z,7.87
2022-11-18T17:54:30.973Z,7.85
2022-11-18T17:56:59.183Z,7.85
2022-11-18T17:59:27.371Z,7.83
2022-11-18T18:01:59.334Z,7.81
2022-11-18T18:04:29.584Z,7.78
2022-11-18T18:06:57.888Z,7.77
2022-11-18T18:09:30.409Z,7.76
2022-11-18T18:11:59.065Z,7.76
2022-11-18T18:14:26.215Z,7.74
2022-11-18T18:16:54.403Z,7.73
2022-11-18T18:19:23.855Z,7.70
2022-11-18T18:21:54.321Z,7.64
2022-11-18T18:24:23.006Z,7.58
2022-11-18T18:26:51.479Z,7.61
2022-11-18T18:29:19.845Z,7.57
2022-11-18T18:31:48.084Z,7.59
2022-11-18T18:34:16.920Z,7.56
2022-11-18T18:36:45.482Z,7.55
2022-11-18T18:39:15.003Z,7.52
2022-11-18T18:41:43.136Z,7.55
2022-11-18T18:44:16.799Z,7.51
2022-11-18T18:46:45.700Z,7.47
2022-11-18T18:49:15.762Z,7.45
2022-11-18T18:51:45.480Z,7.46
2022-11-18T18:54:20.335Z,7.42
2022-11-18T18:56:48.848Z,7.43
2022-11-18T18:59:16.944Z,7.41
2022-11-18T19:01:45.156Z,7.37
2022-11-18T19:04:14.379Z,7.37
2022-11-18T19:07:01.314Z,7.35
2022-11-18T19:09:30.879Z,7.35
2022-11-18T19:12:16.486Z,7.34
2022-11-18T19:14:44.706Z,7.31
2022-11-18T19:17:13.303Z,7.28
2022-11-18T19:19:59.925Z,7.27
2022-11-18T19:22:31.690Z,7.27
2022-11-18T19:25:02.090Z,7.28
2022-11-18T19:27:30.701Z,7.28
2022-11-18T19:30:00.699Z,7.27
2022-11-18T19:32:29.138Z,7.25
2022-11-18T19:34:57.602Z,7.25
2022-11-18T19:37:26.473Z,7.20
2022-11-18T19:39:55.010Z,7.16
2022-11-18T19:42:25.023Z,7.15
2022-11-18T19:44:53.210Z,7.14
2022-11-18T19:47:21.277Z,7.15
2022-11-18T19:49:49.557Z,7.13
2022-11-18T19:52:17.808Z,7.13
2022-11-18T19:54:45.952Z,7.12
2022-11-18T19:57:14.195Z,7.09
2022-11-18T19:59:45.013Z,7.09
2022-11-18T20:02:14.087Z,7.06
2022-11-18T20:05:02.221Z,7.05
2022-11-18T20:07:30.974Z,7.02
2022-11-18T20:09:59.487Z,7.00
2022-11-18T20:12:27.546Z,7.00
2022-11-18T20:14:57.238Z,6.98
2022-11-18T20:17:25.371Z,6.96
2022-11-18T20:19:53.499Z,6.94
2022-11-18T20:22:22.253Z,6.95
2022-11-18T20:24:50.322Z,6.94
2022-11-18T20:27:18.937Z,6.93
2022-11-18T20:29:47.270Z,6.91
2022-11-18T20:32:18.494Z,6.91
2022-11-18T20:34:47.252Z,6.86
2022-11-18T20:37:17.274Z,6.85
2022-11-18T20:39:45.375Z,6.83
2022-11-18T20:42:30.846Z,6.82
2022-11-18T20:44:58.987Z,6.79
2022-11-18T20:47:28.559Z,6.79
2022-11-18T20:49:57.465Z,6.78
2022-11-18T20:52:25.555Z,6.75
2022-11-18T20:54:53.609Z,6.73
2022-11-18T20:57:21.768Z,6.74
2022-11-18T20:59:49.890Z,6.74
2022-11-18T21:02:18.096Z,6.74
2022-11-18T21:04:47.736Z,6.72
2022-11-18T21:07:15.823Z,6.72
2022-11-18T21:09:44.047Z,6.71
2022-11-18T21:12:12.330Z,6.71
2022-11-18T21:14:39.515Z,6.68
2022-11-18T21:17:07.674Z,6.64
2022-11-18T21:19:35.845Z,6.63
2022-11-18T21:22:04.717Z,6.62
2022-11-18T21:24:34.229Z,6.59
2022-11-18T21:27:04.335Z,6.57
2022-11-18T21:29:34.104Z,6.55
2022-11-18T21:32:02.714Z,6.56
2022-11-18T21:34:31.438Z,6.58
2022-11-18T21:36:59.680Z,6.57
2022-11-18T21:39:29.212Z,6.59
2022-11-18T21:41:57.806Z,6.57
2022-11-18T21:44:28.096Z,6.56
2022-11-18T21:46:57.378Z,6.55
2022-11-18T21:49:25.631Z,6.54
2022-11-18T21:51:54.371Z,6.52
2022-11-18T21:54:22.539Z,6.53
2022-11-18T21:56:53.846Z,6.52
2022-11-18T21:59:23.713Z,6.52
2022-11-18T22:01:51.893Z,6.51
2022-11-18T22:04:34.015Z,6.50
2022-11-18T22:07:02.286Z,6.50
2022-11-18T22:09:36.138Z,6.50
2022-11-18T22:12:07.939Z,6.48
2022-11-18T22:14:36.276Z,6.50
2022-11-18T22:17:04.687Z,6.47
2022-11-18T22:19:32.789Z,6.45
2022-11-18T22:22:01.231Z,6.45
2022-11-18T22:24:29.357Z,6.43
2022-11-18T22:26:58.139Z,6.43
2022-11-18T22:29:27.746Z,6.43
2022-11-18T22:31:55.853Z,6.44
2022-11-18T22:34:23.963Z,6.42
2022-11-18T22:36:52.072Z,6.44
2022-11-18T22:39:20.185Z,6.45
2022-11-18T22:42:06.084Z,6.41
2022-11-18T22:44:36.118Z,6.45
2022-11-18T22:47:04.326Z,6.45
2022-11-18T22:49:32.395Z,6.45
2022-11-18T22:52:00.566Z,6.43
2022-11-18T22:54:38.982Z,6.42
2022-11-18T22:57:08.094Z,6.38
2022-11-18T22:59:37.745Z,6.36
2022-11-18T23:02:06.455Z,6.33
2022-11-18T23:04:34.590Z,6.32
2022-11-18T23:07:02.895Z,6.33
2022-11-18T23:09:31.163Z,6.32
2022-11-18T23:12:16.670Z,6.29
2022-11-18T23:14:46.258Z,6.29
2022-11-18T23:17:16.033Z,6.27
2022-11-18T23:19:44.335Z,6.26
2022-11-18T23:22:12.991Z,6.25
2022-11-18T23:24:41.264Z,6.26
2022-11-18T23:27:10.306Z,6.25
2022-11-18T23:29:38.754Z,6.22
2022-11-18T23:32:08.353Z,6.23
2022-11-18T23:34:36.487Z,6.19
2022-11-18T23:37:04.677Z,6.19
2022-11-18T23:39:32.829Z,6.18
2022-11-18T23:42:00.876Z,6.16
2022-11-18T23:44:47.566Z,6.16
2022-11-18T23:47:17.250Z,6.16
2022-11-18T23:49:45.607Z,6.15
2022-11-18T23:52:15.025Z,6.11
2022-11-18T23:54:43.098Z,6.12
2022-11-18T23:57:11.276Z,6.10
2022-11-18T23:59:39.441Z,6.13
